SNFE weather

Comandante Paschoal Patrocínio Filho Airport
Alfenas, Minas Gerais, Brazil

Public forecast

Using degrees Celsius for public forecast. Weather courtesy of forecast.io.

Closest aviation weather report (METAR) to Comandante Paschoal Patrocínio Filho Airport

Report is more than 6 hours old.

Closest report is Poços de Caldas - Embaixador Walther Moreira Salles Airport, 43.2 nm (80.1 km) SW. Retrieved 2020/04/02 20:00 UTC (9 hours ago):

SBPC 022000Z /////KT 9999 FEW015 25/18 Q1018

Closest aviation forecast (TAF) to Comandante Paschoal Patrocínio Filho Airport

Closest forecast is Campo Fontenelle Airport, 85.0 nm (157.4 km) WSW. Retrieved 2020-04-03 00:03 UTC (5 hours ago):

TAF SBYS 022100Z 0300/0312 32005KT CAVOK TN19/0309Z TX24/0312Z BECMG 0304/0306 5000 BR NSC BECMG 0310/0312 31008KT 9999 FEW030 RMK PDJ